createdAt,value
2018-06-15T00:00:53.721Z,16.00
2018-06-15T00:01:53.756Z,15.86
2018-06-15T00:02:53.790Z,15.89
2018-06-15T00:03:53.824Z,15.83
2018-06-15T00:04:53.859Z,15.80
2018-06-15T00:05:53.897Z,15.84
2018-06-15T00:06:53.927Z,15.84
2018-06-15T00:07:53.961Z,15.80
2018-06-15T00:08:53.996Z,15.74
2018-06-15T00:09:54.031Z,15.72
2018-06-15T00:10:54.064Z,15.72
2018-06-15T00:11:54.097Z,15.72
2018-06-15T00:12:54.136Z,15.72
2018-06-15T00:13:54.168Z,15.68
2018-06-15T00:14:54.201Z,15.69
2018-06-15T00:15:54.236Z,15.76
2018-06-15T00:16:54.271Z,15.68
2018-06-15T00:17:54.309Z,15.69
2018-06-15T00:18:54.341Z,15.68
2018-06-15T00:19:54.373Z,15.62
2018-06-15T00:20:54.408Z,15.60
2018-06-15T00:21:54.442Z,15.56
2018-06-15T00:22:54.475Z,15.59
2018-06-15T00:23:54.510Z,15.56
2018-06-15T00:24:54.545Z,15.64
2018-06-15T00:25:54.579Z,15.62
2018-06-15T00:26:54.613Z,15.72
2018-06-15T00:27:54.646Z,15.71
2018-06-15T00:28:54.682Z,15.82
2018-06-15T00:29:54.717Z,15.74
2018-06-15T00:30:54.750Z,15.83
2018-06-15T00:31:54.784Z,15.78
2018-06-15T00:32:54.819Z,15.90
2018-06-15T00:33:54.853Z,15.78
2018-06-15T00:34:54.887Z,15.71
2018-06-15T00:35:54.922Z,15.69
2018-06-15T00:36:54.956Z,15.62
2018-06-15T00:37:54.991Z,15.60
2018-06-15T00:38:55.024Z,15.64
2018-06-15T00:39:55.058Z,15.57
2018-06-15T00:40:55.092Z,15.57
2018-06-15T00:41:55.130Z,15.47
2018-06-15T00:42:55.162Z,15.51
2018-06-15T00:43:55.196Z,15.53
2018-06-15T00:44:55.232Z,15.46
2018-06-15T00:45:55.264Z,15.47
2018-06-15T00:46:55.299Z,15.38
2018-06-15T00:47:55.334Z,15.36
2018-06-15T00:48:55.429Z,15.39
2018-06-15T00:49:55.412Z,15.39
2018-06-15T00:50:55.436Z,15.36
2018-06-15T00:51:55.479Z,15.36
2018-06-15T00:52:55.505Z,15.39
2018-06-15T00:53:55.539Z,15.36
2018-06-15T00:54:55.572Z,15.35
2018-06-15T00:55:55.606Z,15.44
2018-06-15T00:56:55.641Z,15.38
2018-06-15T00:57:55.676Z,15.34
2018-06-15T00:58:55.709Z,15.38
2018-06-15T00:59:55.743Z,15.34
2018-06-15T01:00:55.777Z,15.41
2018-06-15T01:01:55.812Z,15.35
2018-06-15T01:02:55.845Z,15.39
2018-06-15T01:03:55.879Z,15.39
2018-06-15T01:04:55.914Z,15.32
2018-06-15T01:05:55.953Z,15.35
2018-06-15T01:06:55.982Z,15.43
2018-06-15T01:07:56.016Z,15.29
2018-06-15T01:08:56.053Z,15.35
2018-06-15T01:09:56.086Z,15.36
2018-06-15T01:10:56.118Z,15.38
2018-06-15T01:11:56.152Z,15.41
2018-06-15T01:12:56.186Z,15.38
2018-06-15T01:13:56.221Z,15.39
2018-06-15T01:14:56.254Z,15.44
2018-06-15T01:15:56.288Z,15.41
2018-06-15T01:16:56.322Z,15.44
2018-06-15T01:17:56.356Z,15.38
2018-06-15T01:18:56.389Z,15.35
2018-06-15T01:19:56.425Z,15.44
2018-06-15T01:20:56.458Z,15.34
2018-06-15T01:21:56.495Z,15.38
2018-06-15T01:22:56.526Z,15.43
2018-06-15T01:23:56.561Z,15.44
2018-06-15T01:24:56.594Z,15.39
2018-06-15T01:25:56.628Z,15.36
2018-06-15T01:26:56.662Z,15.27
2018-06-15T01:27:56.696Z,15.10
2018-06-15T01:28:56.729Z,15.19
2018-06-15T01:29:56.767Z,15.11
2018-06-15T01:30:56.798Z,15.02
2018-06-15T01:31:56.830Z,14.84
2018-06-15T01:32:56.866Z,14.94
2018-06-15T01:33:56.900Z,14.86
2018-06-15T01:34:56.933Z,14.94
2018-06-15T01:35:56.969Z,14.92
2018-06-15T01:36:57.002Z,14.91
2018-06-15T01:37:57.036Z,15.02
2018-06-15T01:38:57.069Z,15.11
2018-06-15T01:39:57.103Z,14.99
2018-06-15T01:40:57.138Z,15.10
2018-06-15T01:41:57.172Z,15.10
2018-06-15T01:42:57.205Z,15.17
2018-06-15T01:43:57.242Z,14.95
2018-06-15T01:44:57.273Z,15.03
2018-06-15T01:45:57.308Z,14.92
2018-06-15T01:46:57.340Z,14.95
2018-06-15T01:47:57.375Z,14.95
2018-06-15T01:48:57.409Z,15.02
2018-06-15T01:49:57.443Z,14.96
2018-06-15T01:50:57.475Z,14.98
2018-06-15T01:51:57.511Z,15.02
2018-06-15T01:52:57.545Z,15.07
2018-06-15T01:53:57.578Z,15.10
2018-06-15T01:54:57.613Z,15.09
2018-06-15T01:55:57.646Z,15.09
2018-06-15T01:56:57.681Z,15.03
2018-06-15T01:57:57.715Z,15.14
2018-06-15T01:58:57.747Z,15.11
2018-06-15T01:59:57.783Z,15.09
2018-06-15T02:00:57.819Z,15.06
2018-06-15T02:01:57.851Z,15.11
2018-06-15T02:02:57.884Z,15.02
2018-06-15T02:03:57.918Z,15.13
2018-06-15T02:04:57.952Z,15.09
2018-06-15T02:05:57.989Z,15.02
2018-06-15T02:06:58.020Z,14.98
2018-06-15T02:08:10.789Z,14.95
2018-06-15T02:08:58.089Z,15.01
2018-06-15T02:09:58.122Z,14.99
2018-06-15T02:10:58.155Z,14.98
2018-06-15T02:11:58.189Z,15.02
2018-06-15T02:12:58.224Z,15.02
2018-06-15T02:13:58.257Z,15.02
2018-06-15T02:14:58.290Z,14.96
2018-06-15T02:15:58.325Z,14.96
2018-06-15T02:16:58.360Z,15.06
2018-06-15T02:17:58.393Z,14.96
2018-06-15T02:18:58.425Z,14.89
2018-06-15T02:19:58.460Z,14.88
2018-06-15T02:20:58.494Z,14.75
2018-06-15T02:21:58.529Z,14.73
2018-06-15T02:22:58.560Z,14.73
2018-06-15T02:23:58.594Z,14.78
2018-06-15T02:24:58.629Z,14.75
2018-06-15T02:25:58.663Z,14.77
2018-06-15T02:26:58.699Z,14.81
2018-06-15T02:27:58.730Z,14.73
2018-06-15T02:28:58.764Z,14.78
2018-06-15T02:29:58.797Z,14.70
2018-06-15T02:30:58.832Z,14.72
2018-06-15T02:31:58.865Z,14.84
2018-06-15T02:32:58.899Z,14.81
2018-06-15T02:33:58.933Z,14.75
2018-06-15T02:34:58.969Z,14.84
2018-06-15T02:35:58.999Z,14.86
2018-06-15T02:36:59.034Z,14.86
2018-06-15T02:37:59.068Z,14.75
2018-06-15T02:38:59.100Z,14.72
2018-06-15T02:39:59.135Z,14.70
2018-06-15T02:40:59.169Z,14.72
2018-06-15T02:41:59.203Z,14.75
2018-06-15T02:42:59.236Z,14.72
2018-06-15T02:43:59.271Z,14.75
2018-06-15T02:44:59.303Z,14.81
2018-06-15T02:45:59.337Z,14.77
2018-06-15T02:46:59.371Z,14.80
2018-06-15T02:47:59.403Z,14.75
2018-06-15T02:48:59.437Z,14.80
2018-06-15T02:49:59.471Z,14.72
2018-06-15T02:50:59.504Z,14.77
2018-06-15T02:51:59.538Z,14.72
2018-06-15T02:52:59.573Z,14.70
2018-06-15T02:53:59.615Z,14.58
2018-06-15T02:54:59.638Z,14.62
2018-06-15T02:55:59.676Z,14.61
2018-06-15T02:56:59.706Z,14.58
2018-06-15T02:57:59.741Z,14.55
2018-06-15T02:58:59.797Z,14.45
2018-06-15T02:59:59.808Z,14.52
2018-06-15T03:00:59.841Z,14.64
2018-06-15T03:01:59.875Z,14.70
2018-06-15T03:02:59.910Z,14.62
2018-06-15T03:03:59.943Z,14.68
2018-06-15T03:04:59.974Z,14.70
2018-06-15T03:06:00.011Z,14.69
2018-06-15T03:07:00.045Z,14.73
2018-06-15T03:08:00.077Z,14.70
2018-06-15T03:09:00.112Z,14.64
2018-06-15T03:10:00.144Z,14.64
2018-06-15T03:11:00.177Z,14.75
2018-06-15T03:12:00.210Z,14.70
2018-06-15T03:13:00.243Z,14.69
2018-06-15T03:14:00.276Z,14.69
2018-06-15T03:15:00.310Z,14.77
2018-06-15T03:16:00.343Z,14.77
2018-06-15T03:17:00.378Z,14.78
2018-06-15T03:18:00.411Z,14.86
2018-06-15T03:19:00.444Z,14.83
2018-06-15T03:20:00.478Z,14.72
2018-06-15T03:21:00.512Z,14.73
2018-06-15T03:22:00.545Z,14.83
2018-06-15T03:23:00.578Z,14.80
2018-06-15T03:24:00.622Z,14.80
2018-06-15T03:25:00.682Z,14.77
2018-06-15T03:26:00.678Z,14.77
2018-06-15T03:27:00.713Z,14.77
2018-06-15T03:28:00.746Z,14.78
2018-06-15T03:29:00.779Z,14.70
2018-06-15T03:30:00.813Z,14.83
2018-06-15T03:31:00.847Z,14.75
2018-06-15T03:32:00.883Z,14.72
2018-06-15T03:33:00.914Z,14.73
2018-06-15T03:34:00.948Z,14.75
2018-06-15T03:35:00.980Z,14.69
2018-06-15T03:36:01.013Z,14.77
2018-06-15T03:37:01.048Z,14.81
2018-06-15T03:38:01.081Z,14.73
2018-06-15T03:39:01.113Z,14.73
2018-06-15T03:40:01.147Z,14.75
2018-06-15T03:41:01.186Z,14.84
2018-06-15T03:42:01.214Z,14.80
2018-06-15T03:43:01.248Z,14.73
2018-06-15T03:44:01.287Z,14.64
2018-06-15T03:45:01.316Z,14.69
2018-06-15T03:46:01.349Z,14.65
2018-06-15T03:47:01.383Z,14.72
2018-06-15T03:48:01.416Z,14.65
2018-06-15T03:49:01.449Z,14.60
2018-06-15T03:50:01.485Z,14.51
2018-06-15T03:51:01.516Z,14.47
2018-06-15T03:52:01.550Z,14.46
2018-06-15T03:53:01.585Z,14.28
2018-06-15T03:54:01.618Z,14.36
2018-06-15T03:55:01.650Z,14.37
2018-06-15T03:56:01.686Z,14.46
2018-06-15T03:57:01.718Z,14.37
2018-06-15T03:58:01.760Z,14.36
2018-06-15T03:59:01.784Z,14.50
2018-06-15T04:00:01.821Z,14.65
2018-06-15T04:01:01.851Z,14.65
2018-06-15T04:02:01.886Z,14.69
2018-06-15T04:03:01.922Z,14.65
2018-06-15T04:04:01.957Z,14.73
2018-06-15T04:05:01.986Z,14.70
2018-06-15T04:06:02.019Z,14.84
2018-06-15T04:07:02.054Z,14.83
2018-06-15T04:08:02.113Z,14.77
2018-06-15T04:09:02.120Z,14.77
2018-06-15T04:10:02.154Z,14.86
2018-06-15T04:11:02.185Z,14.83
2018-06-15T04:12:02.221Z,14.98
2018-06-15T04:13:02.342Z,15.10
2018-06-15T04:14:02.288Z,15.06
2018-06-15T04:15:02.322Z,15.11
2018-06-15T04:16:02.354Z,15.11
2018-06-15T04:17:02.388Z,15.10
2018-06-15T04:18:02.422Z,15.07
2018-06-15T04:19:02.454Z,15.14
2018-06-15T04:20:02.511Z,15.02
2018-06-15T04:21:02.523Z,15.11
2018-06-15T04:22:02.556Z,15.01
2018-06-15T04:23:02.590Z,15.03
2018-06-15T04:24:02.627Z,15.13
2018-06-15T04:25:02.656Z,15.11
2018-06-15T04:26:02.691Z,15.16
2018-06-15T04:27:02.724Z,15.27
2018-06-15T04:28:02.763Z,15.29
2018-06-15T04:29:02.791Z,15.21
2018-06-15T04:30:02.826Z,15.21
2018-06-15T04:31:02.858Z,15.23
2018-06-15T04:32:02.893Z,15.19
2018-06-15T04:33:02.926Z,15.20
2018-06-15T04:34:02.959Z,15.23
2018-06-15T04:35:02.997Z,15.27
2018-06-15T04:36:03.028Z,15.21
2018-06-15T04:37:03.061Z,15.20
2018-06-15T04:38:03.096Z,15.31
2018-06-15T04:39:03.129Z,15.32
2018-06-15T04:40:03.162Z,15.32
2018-06-15T04:41:03.198Z,15.21
2018-06-15T04:42:03.231Z,15.29
2018-06-15T04:43:03.264Z,15.36
2018-06-15T04:44:03.299Z,15.28
2018-06-15T04:45:03.335Z,15.31
2018-06-15T04:46:03.370Z,15.38
2018-06-15T04:47:03.399Z,15.46
2018-06-15T04:48:03.434Z,15.44
2018-06-15T04:49:03.468Z,15.50
2018-06-15T04:50:03.502Z,15.53
2018-06-15T04:51:03.536Z,15.44
2018-06-15T04:52:03.571Z,15.49
2018-06-15T04:53:03.604Z,15.51
2018-06-15T04:54:03.638Z,15.62
2018-06-15T04:55:03.672Z,15.71
2018-06-15T04:56:03.705Z,15.59
2018-06-15T04:57:03.742Z,15.64
2018-06-15T04:58:03.774Z,15.62
2018-06-15T04:59:03.808Z,15.62
2018-06-15T05:00:03.844Z,15.50
2018-06-15T05:01:03.878Z,15.49
2018-06-15T05:02:03.911Z,15.46
2018-06-15T05:03:03.944Z,15.46
2018-06-15T05:04:03.979Z,15.49
2018-06-15T05:05:04.014Z,15.53
2018-06-15T05:06:04.048Z,15.60
2018-06-15T05:07:04.083Z,15.67
2018-06-15T05:08:04.117Z,15.62
2018-06-15T05:09:04.151Z,15.65
2018-06-15T05:10:04.186Z,15.62
2018-06-15T05:11:04.220Z,15.56
2018-06-15T05:12:04.255Z,15.75
2018-06-15T05:13:04.289Z,15.87
2018-06-15T05:14:04.323Z,15.87
2018-06-15T05:15:04.356Z,15.90
2018-06-15T05:16:04.391Z,16.04
2018-06-15T05:17:04.426Z,16.14
2018-06-15T05:18:04.462Z,16.12
2018-06-15T05:19:04.497Z,16.30
2018-06-15T05:20:04.529Z,16.33
2018-06-15T05:21:04.565Z,16.38
2018-06-15T05:22:04.601Z,16.41
2018-06-15T05:23:04.632Z,16.41
2018-06-15T05:24:04.668Z,16.38
2018-06-15T05:25:04.703Z,16.30
2018-06-15T05:26:04.739Z,16.33
2018-06-15T05:27:04.773Z,16.38
2018-06-15T05:28:04.808Z,16.45
2018-06-15T05:29:04.843Z,16.48
2018-06-15T05:30:04.878Z,16.49
2018-06-15T05:31:04.911Z,16.58
2018-06-15T05:32:04.948Z,16.60
2018-06-15T05:33:04.982Z,16.64
2018-06-15T05:34:05.017Z,16.73
2018-06-15T05:35:05.053Z,16.79
2018-06-15T05:36:05.092Z,16.96
2018-06-15T05:37:05.124Z,17.06
2018-06-15T05:38:05.159Z,17.08
2018-06-15T05:39:05.191Z,17.12
2018-06-15T05:40:05.227Z,17.21
2018-06-15T05:41:05.263Z,17.19
2018-06-15T05:42:05.298Z,17.22
2018-06-15T05:43:05.333Z,17.21
2018-06-15T05:44:05.366Z,17.40
2018-06-15T05:45:05.404Z,17.54
2018-06-15T05:46:05.442Z,17.72
2018-06-15T05:47:05.472Z,17.78
2018-06-15T05:48:05.510Z,17.90
2018-06-15T05:49:05.544Z,17.99
2018-06-15T05:50:05.580Z,17.97
2018-06-15T05:51:05.616Z,17.97
2018-06-15T05:52:05.650Z,18.12
2018-06-15T05:53:05.687Z,18.15
2018-06-15T05:54:05.721Z,18.20
2018-06-15T05:55:05.756Z,18.32
2018-06-15T05:56:05.791Z,18.36
2018-06-15T05:57:05.829Z,18.48
2018-06-15T05:58:05.863Z,18.44
2018-06-15T05:59:05.899Z,18.51
2018-06-15T06:00:05.935Z,18.57
2018-06-15T06:01:05.971Z,18.58
2018-06-15T06:02:06.009Z,18.62
2018-06-15T06:03:06.046Z,18.62
2018-06-15T06:04:06.087Z,18.75
2018-06-15T06:05:06.113Z,18.70
2018-06-15T06:06:06.150Z,18.72
2018-06-15T06:07:06.185Z,18.69
2018-06-15T06:08:06.220Z,18.85
2018-06-15T06:09:06.257Z,18.81
2018-06-15T06:10:06.294Z,18.80
2018-06-15T06:11:06.329Z,18.90
2018-06-15T06:12:06.364Z,18.84
2018-06-15T06:13:06.402Z,18.90
2018-06-15T06:14:06.437Z,19.00
2018-06-15T06:15:06.473Z,19.06
2018-06-15T06:16:06.509Z,19.11
2018-06-15T06:17:06.545Z,19.06
2018-06-15T06:18:06.582Z,19.21
2018-06-15T06:19:06.619Z,19.19
2018-06-15T06:20:06.752Z,19.16
2018-06-15T06:21:06.689Z,19.25
2018-06-15T06:22:06.727Z,19.32
2018-06-15T06:23:06.761Z,19.28
2018-06-15T06:24:06.798Z,19.25
2018-06-15T06:25:06.836Z,19.31
2018-06-15T06:26:06.871Z,19.36
2018-06-15T06:27:06.909Z,19.39
2018-06-15T06:28:06.944Z,19.47
2018-06-15T06:29:06.981Z,19.44
2018-06-15T06:30:07.018Z,19.47
2018-06-15T06:31:07.052Z,19.56
2018-06-15T06:32:07.089Z,19.63
2018-06-15T06:33:07.125Z,19.69
2018-06-15T06:34:07.162Z,19.69
2018-06-15T06:35:07.198Z,19.63
2018-06-15T06:36:07.239Z,19.66
2018-06-15T06:37:07.273Z,19.74
2018-06-15T06:38:07.308Z,19.78
2018-06-15T06:39:07.344Z,19.77
2018-06-15T06:40:07.384Z,19.80
2018-06-15T06:41:07.419Z,19.73
2018-06-15T06:42:07.456Z,19.80
2018-06-15T06:43:07.491Z,19.78
2018-06-15T06:44:07.528Z,19.87
2018-06-15T06:45:07.567Z,19.84
2018-06-15T06:46:07.603Z,19.98
2018-06-15T06:47:07.638Z,20.05
2018-06-15T06:48:07.675Z,20.08
2018-06-15T06:49:07.712Z,20.11
2018-06-15T06:50:07.750Z,20.23
2018-06-15T06:51:07.785Z,20.28
2018-06-15T06:52:07.823Z,20.36
2018-06-15T06:53:07.861Z,20.38
2018-06-15T06:54:07.898Z,20.54
2018-06-15T06:55:07.933Z,20.39
2018-06-15T06:56:07.970Z,20.36
2018-06-15T06:57:08.010Z,20.28
2018-06-15T06:58:08.044Z,20.33
2018-06-15T06:59:08.080Z,20.48
2018-06-15T07:00:08.118Z,20.39
2018-06-15T07:01:08.158Z,20.61
2018-06-15T07:02:08.194Z,20.67
2018-06-15T07:03:08.229Z,20.76
2018-06-15T07:04:08.267Z,20.82
2018-06-15T07:05:08.321Z,20.97
2018-06-15T07:06:08.342Z,21.09
2018-06-15T07:07:08.383Z,21.25
2018-06-15T07:08:08.417Z,21.19
2018-06-15T07:09:08.454Z,21.17
2018-06-15T07:10:08.492Z,21.17
2018-06-15T07:11:08.529Z,21.21
2018-06-15T07:12:08.568Z,21.12
2018-06-15T07:13:08.610Z,21.12
2018-06-15T07:14:08.641Z,21.19
2018-06-15T07:15:08.679Z,21.21
2018-06-15T07:16:08.717Z,21.35
2018-06-15T07:17:08.755Z,21.17
2018-06-15T07:18:08.793Z,21.25
2018-06-15T07:19:08.830Z,21.28
2018-06-15T07:20:08.872Z,21.19
2018-06-15T07:21:08.905Z,21.28
2018-06-15T07:22:08.946Z,21.32
2018-06-15T07:23:08.981Z,21.31
2018-06-15T07:24:09.020Z,21.31
2018-06-15T07:25:09.058Z,21.42
2018-06-15T07:26:09.099Z,21.29
2018-06-15T07:27:09.136Z,21.44
2018-06-15T07:28:09.172Z,21.49
2018-06-15T07:29:09.211Z,21.49
2018-06-15T07:30:09.249Z,21.56
2018-06-15T07:31:09.289Z,21.72
2018-06-15T07:32:09.324Z,21.77
2018-06-15T07:33:09.370Z,21.91
2018-06-15T07:34:09.402Z,22.05
2018-06-15T07:35:09.449Z,22.09
2018-06-15T07:36:09.478Z,22.09
2018-06-15T07:37:09.523Z,22.21
2018-06-15T07:38:09.561Z,22.15
2018-06-15T07:39:09.594Z,21.91
2018-06-15T07:40:09.633Z,21.74
2018-06-15T07:41:09.670Z,21.74
2018-06-15T07:42:09.710Z,21.64
2018-06-15T07:43:09.750Z,21.83
2018-06-15T07:44:09.786Z,22.12
2018-06-15T07:45:10.635Z,22.36
2018-06-15T07:46:13.715Z,22.47
2018-06-15T07:47:09.902Z,22.75
2018-06-15T07:48:09.941Z,22.64
2018-06-15T07:49:09.980Z,22.40
2018-06-15T07:50:10.022Z,22.39
2018-06-15T07:51:10.057Z,22.43
2018-06-15T07:52:52.648Z,22.57
2018-06-15T07:53:52.687Z,22.65
2018-06-15T07:54:52.726Z,22.54
2018-06-15T07:55:52.768Z,22.62
2018-06-15T07:56:52.806Z,22.36
2018-06-15T07:57:52.844Z,22.60
2018-06-15T07:58:52.882Z,22.86
2018-06-15T07:59:52.920Z,23.00
2018-06-15T08:00:52.961Z,23.02
2018-06-15T08:01:53.000Z,23.15
2018-06-15T08:02:53.038Z,23.27
2018-06-15T08:03:53.078Z,22.68
2018-06-15T08:04:53.117Z,22.68
2018-06-15T08:05:53.157Z,22.90
2018-06-15T08:06:53.196Z,22.82
2018-06-15T08:07:53.236Z,22.92
2018-06-15T08:08:53.275Z,22.97
2018-06-15T08:09:53.314Z,22.91
2018-06-15T08:10:53.355Z,22.95
2018-06-15T08:11:53.399Z,23.01
2018-06-15T08:12:53.432Z,22.94
2018-06-15T08:13:53.472Z,22.95
2018-06-15T08:14:53.513Z,23.23
2018-06-15T08:15:53.555Z,23.43
2018-06-15T08:16:53.591Z,23.65
2018-06-15T08:17:53.631Z,23.43
2018-06-15T08:19:53.729Z,23.78
2018-06-15T08:20:53.754Z,23.76
2018-06-15T08:21:53.791Z,23.42
2018-06-15T08:22:53.831Z,23.78
2018-06-15T08:23:53.869Z,23.76
2018-06-15T08:24:53.911Z,23.88
2018-06-15T08:25:53.951Z,24.43
2018-06-15T08:26:53.991Z,24.57
2018-06-15T08:27:54.031Z,24.93
2018-06-15T08:28:54.070Z,25.25
2018-06-15T08:30:36.664Z,25.02
2018-06-15T08:31:36.706Z,25.00
2018-06-15T08:32:36.746Z,25.20
2018-06-15T08:33:36.786Z,25.17
2018-06-15T08:34:36.828Z,25.13
2018-06-15T08:35:37.088Z,24.95
2018-06-15T08:36:36.908Z,24.81
2018-06-15T08:37:36.947Z,24.69
2018-06-15T08:38:37.006Z,24.71
2018-06-15T08:39:37.029Z,24.88
2018-06-15T08:40:37.272Z,25.03
2018-06-15T08:41:37.131Z,25.09
2018-06-15T08:42:37.150Z,25.15
2018-06-15T08:43:37.191Z,24.98
2018-06-15T08:44:37.231Z,24.40
2018-06-15T08:45:37.272Z,24.52
2018-06-15T08:46:37.312Z,24.61
2018-06-15T08:47:37.353Z,24.68
2018-06-15T08:48:37.393Z,24.83
2018-06-15T08:49:37.434Z,24.85
2018-06-15T08:50:37.475Z,24.91
2018-06-15T08:51:37.516Z,25.20
2018-06-15T08:52:37.556Z,25.50
2018-06-15T08:53:37.597Z,25.69
2018-06-15T08:54:37.642Z,25.35
2018-06-15T08:55:37.678Z,25.32
2018-06-15T08:56:37.719Z,25.02
2018-06-15T08:57:37.762Z,25.39
2018-06-15T08:58:37.800Z,25.42
2018-06-15T08:59:37.842Z,25.42
2018-06-15T09:00:37.883Z,25.38
2018-06-15T09:02:37.964Z,24.88
2018-06-15T09:03:38.006Z,25.15
2018-06-15T09:04:38.047Z,25.25
2018-06-15T09:05:38.088Z,25.54
2018-06-15T09:06:38.129Z,25.51
2018-06-15T09:07:38.170Z,25.77
2018-06-15T09:08:38.212Z,25.77
2018-06-15T09:09:38.254Z,26.01
2018-06-15T09:10:38.300Z,26.33
2018-06-15T09:11:38.337Z,26.20
2018-06-15T09:12:38.378Z,26.66
2018-06-15T09:13:38.419Z,26.95
2018-06-15T09:14:38.461Z,27.07
2018-06-15T09:15:38.510Z,26.55
2018-06-15T09:16:38.544Z,26.62
2018-06-15T09:17:38.586Z,26.13
2018-06-15T09:18:38.627Z,26.02
2018-06-15T09:19:38.669Z,26.43
2018-06-15T09:20:38.713Z,26.51
2018-06-15T09:21:38.756Z,26.62
2018-06-15T09:22:38.799Z,26.94
2018-06-15T09:23:38.839Z,26.62
2018-06-15T09:24:38.881Z,26.69
2018-06-15T09:25:38.924Z,26.66
2018-06-15T09:26:38.965Z,26.15
2018-06-15T09:27:39.007Z,26.28
2018-06-15T09:28:39.050Z,26.37
2018-06-15T09:29:39.093Z,26.44
2018-06-15T09:30:39.135Z,26.62
2018-06-15T09:31:39.178Z,26.89
2018-06-15T09:32:39.238Z,27.04
2018-06-15T09:33:39.263Z,27.32
2018-06-15T09:34:39.306Z,27.54
2018-06-15T09:35:39.350Z,27.54
2018-06-15T09:36:39.391Z,27.59
2018-06-15T09:37:39.433Z,27.85
2018-06-15T09:38:39.476Z,27.79
2018-06-15T09:39:39.519Z,27.79
2018-06-15T09:40:39.562Z,27.74
2018-06-15T09:41:39.603Z,27.55
2018-06-15T09:42:39.646Z,27.07
2018-06-15T09:43:39.689Z,26.57
2018-06-15T09:44:39.733Z,26.37
2018-06-15T09:45:39.776Z,26.66
2018-06-15T09:46:39.906Z,26.87
2018-06-15T09:47:39.862Z,27.14
2018-06-15T09:48:39.904Z,27.21
2018-06-15T09:49:39.945Z,27.04
2018-06-15T09:50:39.990Z,27.28
2018-06-15T09:51:40.032Z,27.29
2018-06-15T09:52:40.076Z,27.25
2018-06-15T09:53:40.118Z,27.47
2018-06-15T09:54:40.161Z,27.44
2018-06-15T09:55:40.205Z,27.43
2018-06-15T09:56:40.248Z,27.36
2018-06-15T09:57:40.289Z,27.19
2018-06-15T09:58:40.332Z,27.10
2018-06-15T09:59:40.376Z,27.17
2018-06-15T10:00:40.426Z,27.32
2018-06-15T10:01:40.462Z,27.39
2018-06-15T10:02:40.524Z,27.41
2018-06-15T10:03:40.552Z,27.49
2018-06-15T10:04:40.608Z,27.28
2018-06-15T10:05:40.635Z,27.22
2018-06-15T10:06:41.002Z,27.04
2018-06-15T10:07:40.737Z,27.32
2018-06-15T10:09:40.804Z,27.22
2018-06-15T10:10:40.848Z,27.09
2018-06-15T10:11:40.908Z,27.19
2018-06-15T10:12:40.935Z,27.02
2018-06-15T10:13:40.976Z,27.17
2018-06-15T10:14:41.042Z,27.46
2018-06-15T10:15:41.084Z,27.09
2018-06-15T10:16:41.129Z,26.70
2018-06-15T10:17:41.151Z,26.95
2018-06-15T10:18:41.215Z,26.95
2018-06-15T10:19:41.442Z,26.65
2018-06-15T10:20:41.282Z,26.39
2018-06-15T10:21:41.325Z,26.60
2018-06-15T10:22:41.368Z,25.97
2018-06-15T10:23:41.431Z,26.30
2018-06-15T10:24:41.473Z,26.44
2018-06-15T10:25:41.498Z,25.92
2018-06-15T10:26:41.543Z,25.87
2018-06-15T10:27:41.586Z,26.65
2018-06-15T10:28:41.956Z,26.48
2018-06-15T10:29:41.672Z,26.35
2018-06-15T10:30:41.936Z,26.57
2018-06-15T10:31:41.760Z,27.02
2018-06-15T10:32:42.064Z,27.40
2018-06-15T10:33:41.865Z,27.06
2018-06-15T10:34:41.909Z,27.39
2018-06-15T10:35:41.956Z,27.67
2018-06-15T10:36:41.979Z,27.78
2018-06-15T10:37:42.038Z,27.96
2018-06-15T10:38:42.087Z,27.96
2018-06-15T10:39:42.334Z,28.33
2018-06-15T10:40:42.171Z,28.19
2018-06-15T10:41:42.216Z,28.06
2018-06-15T10:42:42.258Z,28.58
2018-06-15T10:43:42.305Z,29.12
2018-06-15T10:44:42.346Z,29.43
2018-06-15T10:45:42.482Z,29.76
2018-06-15T10:46:42.423Z,29.68
2018-06-15T10:47:42.785Z,30.00
2018-06-15T10:48:42.506Z,30.47
2018-06-15T10:49:42.552Z,29.45
2018-06-15T10:50:42.597Z,30.00
2018-06-15T10:51:45.269Z,30.34
2018-06-15T10:52:42.690Z,30.15
2018-06-15T10:53:42.736Z,30.82
2018-06-15T10:54:42.787Z,30.70
2018-06-15T10:55:42.837Z,31.36
2018-06-15T10:56:42.881Z,31.14
2018-06-15T10:57:42.929Z,31.56
2018-06-15T10:58:42.978Z,32.21
2018-06-15T10:59:43.028Z,31.95
2018-06-15T11:00:43.078Z,32.50
2018-06-15T11:01:43.128Z,32.41
2018-06-15T11:02:43.178Z,33.37
2018-06-15T11:03:43.228Z,33.87
2018-06-15T11:04:43.281Z,33.91
2018-06-15T11:05:43.330Z,34.13
2018-06-15T11:06:43.383Z,34.40
2018-06-15T11:07:43.434Z,34.28
2018-06-15T11:08:43.488Z,34.09
2018-06-15T11:09:43.537Z,34.40
2018-06-15T11:10:43.590Z,34.66
2018-06-15T11:11:43.643Z,35.10
2018-06-15T11:12:43.697Z,33.44
2018-06-15T11:13:43.746Z,34.03
2018-06-15T11:14:43.820Z,34.65
2018-06-15T11:15:43.852Z,34.19
2018-06-15T11:16:43.907Z,34.16
2018-06-15T11:17:43.959Z,34.64
2018-06-15T11:18:44.011Z,35.34
2018-06-15T11:19:44.069Z,35.23
2018-06-15T11:20:44.119Z,35.52
2018-06-15T11:21:44.172Z,34.99
2018-06-15T11:22:44.227Z,35.31
2018-06-15T11:23:44.279Z,35.58
2018-06-15T11:24:44.335Z,36.27
2018-06-15T11:25:44.406Z,36.07
2018-06-15T11:26:44.443Z,35.62
2018-06-15T11:27:44.497Z,35.55
2018-06-15T11:28:44.551Z,36.09
2018-06-15T11:29:44.604Z,35.75
2018-06-15T11:30:44.659Z,36.08
2018-06-15T11:31:44.714Z,36.19
2018-06-15T11:32:44.768Z,36.22
2018-06-15T11:33:44.825Z,36.53
2018-06-15T11:34:44.877Z,36.95
2018-06-15T11:35:44.936Z,36.51
2018-06-15T11:36:44.986Z,36.75
2018-06-15T11:37:45.041Z,36.20
2018-06-15T11:38:45.099Z,35.06
2018-06-15T11:39:45.150Z,35.52
2018-06-15T11:41:46.093Z,35.02
2018-06-15T11:42:45.335Z,34.88
2018-06-15T11:43:45.369Z,34.94
2018-06-15T11:44:45.426Z,34.00
2018-06-15T11:45:45.482Z,34.35
2018-06-15T11:46:45.537Z,34.89
2018-06-15T11:47:45.590Z,35.03
2018-06-15T11:48:45.646Z,35.71
2018-06-15T11:49:45.700Z,36.56
2018-06-15T11:50:45.760Z,36.27
2018-06-15T11:51:45.815Z,36.71
2018-06-15T11:52:45.866Z,37.02
2018-06-15T11:53:45.927Z,36.65
2018-06-15T11:54:45.978Z,36.73
2018-06-15T11:55:46.032Z,35.65
2018-06-15T11:56:46.089Z,35.92
2018-06-15T11:57:46.143Z,36.53
2018-06-15T11:58:46.198Z,36.64
2018-06-15T11:59:46.254Z,37.20
2018-06-15T12:00:46.310Z,37.78
2018-06-15T12:01:46.412Z,37.94
2018-06-15T12:02:46.418Z,38.11
2018-06-15T12:03:46.476Z,37.47
2018-06-15T12:04:46.531Z,38.04
2018-06-15T12:05:46.586Z,38.23
2018-06-15T12:06:46.642Z,37.72
2018-06-15T12:07:46.727Z,36.73
2018-06-15T12:08:46.753Z,37.64
2018-06-15T12:09:46.806Z,37.89
2018-06-15T12:10:46.863Z,37.59
2018-06-15T12:11:46.918Z,37.47
2018-06-15T12:12:46.974Z,36.54
2018-06-15T12:13:47.028Z,36.50
2018-06-15T12:14:47.084Z,35.82
2018-06-15T12:15:47.190Z,36.59
2018-06-15T12:16:47.198Z,36.72
2018-06-15T12:17:47.250Z,36.72
2018-06-15T12:18:47.307Z,36.71
2018-06-15T12:19:47.364Z,36.44
2018-06-15T12:20:47.419Z,36.80
2018-06-15T12:21:47.474Z,36.72
2018-06-15T12:22:47.532Z,35.92
2018-06-15T12:23:47.586Z,36.07
2018-06-15T12:24:47.643Z,36.99
2018-06-15T12:25:47.697Z,37.20
2018-06-15T12:26:47.753Z,37.02
2018-06-15T12:27:47.810Z,37.24
2018-06-15T12:28:47.867Z,37.02
2018-06-15T12:29:47.921Z,36.93
2018-06-15T12:30:47.979Z,36.81
2018-06-15T12:31:48.034Z,37.18
2018-06-15T12:32:48.098Z,38.03
2018-06-15T12:33:48.148Z,36.94
2018-06-15T12:34:48.210Z,37.60
2018-06-15T12:35:48.260Z,38.03
2018-06-15T12:36:48.315Z,38.09
2018-06-15T12:37:48.373Z,37.20
2018-06-15T12:38:48.429Z,37.28
2018-06-15T12:39:48.486Z,36.29
2018-06-15T12:40:48.542Z,36.64
2018-06-15T12:41:48.598Z,36.19
2018-06-15T12:42:48.654Z,37.03
2018-06-15T12:43:48.712Z,35.99
2018-06-15T12:44:48.771Z,35.22
2018-06-15T12:45:48.869Z,35.29
2018-06-15T12:46:48.880Z,35.34
2018-06-15T12:47:48.937Z,36.22
2018-06-15T12:48:49.005Z,36.19
2018-06-15T12:49:49.049Z,36.66
2018-06-15T12:50:49.107Z,37.36
2018-06-15T12:51:49.165Z,37.22
2018-06-15T12:52:49.218Z,36.71
2018-06-15T12:53:49.274Z,35.92
2018-06-15T12:54:49.331Z,35.50
2018-06-15T12:55:49.386Z,34.39
2018-06-15T12:56:49.442Z,35.58
2018-06-15T12:57:49.497Z,34.78
2018-06-15T12:58:49.554Z,34.16